Arley, AL

2:13 AM CDT on October 21, 2014 (GMT -0500)
Upshaw Community | Change Station
CLOSE
Current Station
Personal Weather Station
Location: Addison, AL
Elevation: 869 ft
Nearby Weather Stations

Elev 869 ft 34.26 °N, 87.16 °W | Updated 10 minutes ago

Clear
Clear
46.0 °F
Feels Like 46 °F
N
0.0
Wind Variable Wind from WNW

Today
High -- | Low -- °F
--% Chance of Precip.
Yesterday
High -- | Low -- °F
Precip. -- in
6:59 AM 6:07 PM
Waning Crescent, 7% visible
Pressure 30.09 in
Visibility 8.0 miles
Clouds Clear
Windchill 46 °F
Dew Point 46 °F
Humidity 99%
Rainfall 0.00 in
Snow Depth Not available.
UV 0 out of 12
Pollen 2.20 out of 12
Ozone Good
PM2.5 Good
Flu Activity Sporadic
METAR K1M4 210656Z AUTO 00000KT 8SM CLR 08/08 A3005 RMK AO2 T00770077 SLP188

More Conditions Fewer Conditions

Pressure 30.09 in
Visibility 8.0 miles
Clouds Clear
Windchill 46 °F
Dew Point 46 °F
Humidity 99%
Rainfall 0.00 in
Snow Depth Not available.
UV 0 out of 12
Pollen 2.20 out of 12
Ozone Good
PM2.5 Good
Flu Activity Sporadic
METAR K1M4 210656Z AUTO 00000KT 8SM CLR 08/08 A3005 RMK AO2 T00770077 SLP188

More Conditions Fewer Conditions

10-Day Weather Forecast

Almanac

Astronomy

Oct. 21, 2014 Rise Set
Actual Time 6:59 AM CDT 6:07 PM CDT
Civil Twilight 6:33 AM CDT 6:33 PM CDT
Nautical Twilight 6:04 AM CDT 7:02 PM CDT
Astronomical Twilight 5:35 AM CDT 7:31 PM CDT
Moon 4:49 AM CDT 4:56 PM CDT
Length of Visible Light 11h 59m
Length of Day
11h 08m
Tomorrow will be 2m 0s shorter.
Waning Crescent, 7% of the Moon is Illuminated
Today
Waning Crescent
Oct 23
New
Oct 30
First Quarter
Nov 6
Full
Nov 14
Last Quarter

Today's Extremes

State Highs State Lows

Community

WunderPhotos

Upload Photos

1,763,619 photos uploaded!

Nearby

Air Quality

  Air Quality AQ Index Pollutant
Yesterday Good
PM10
Yesterday Good
OZONE
Current Good
PM2.5
Current Good
OZONE
Tuesday Moderate
PM2.5

Snow Depth

Station Depth Elevation
No new snow has been reported.

Earthquake Activity

City Distance Mag. Time & Date
No recent earthquake activity has been reported nearby.
Minimum magnitude displayed is 2.5.

Coastal Water Temperatures

Place Temperature
No Stations Reporting

Nearby Weather Stations